Terminal Aerodrome Forecast
Issued by NWS

Home | Current Version | Previous Version | Text Only | Print | Product List | Glossary On
Versions: 1 2 3 4 5 6 7 8 9 10 11 12 13 14 15 16 17
000
FTUS44 KTSA 260700 AAA
TAFXNA
TAF AMD
KXNA 260712Z 2607/2706 19004KT 3SM BR SKC
      TEMPO 2607/2611 1/4SM FG
     FM261100 00000KT 4SM BR SKC
      TEMPO 2611/2613 2SM BR SCT002
     FM261400 19007KT P6SM SKC
     FM261900 19014G22KT P6SM SKC
     FM270100 18010KT P6SM SKC=

USA.gov is the U.S. government's official web portal to all federal, state and local government web resources and services.